createdAt,value
2018-02-12T00:01:55.924Z,2.40
2018-02-12T00:04:23.365Z,2.40
2018-02-12T00:06:50.824Z,2.40
2018-02-12T00:09:18.512Z,2.40
2018-02-12T00:11:45.980Z,2.30
2018-02-12T00:14:13.432Z,2.40
2018-02-12T00:16:40.889Z,2.40
2018-02-12T00:19:08.356Z,2.40
2018-02-12T00:21:35.804Z,2.40
2018-02-12T00:24:03.233Z,2.40
2018-02-12T00:26:30.744Z,2.40
2018-02-12T00:28:58.194Z,2.40
2018-02-12T00:31:25.735Z,2.50
2018-02-12T00:33:53.173Z,2.50
2018-02-12T00:36:20.615Z,2.50
2018-02-12T00:38:48.069Z,2.60
2018-02-12T00:41:15.618Z,2.60
2018-02-12T00:43:43.068Z,2.60
2018-02-12T00:46:10.534Z,2.60
2018-02-12T00:48:37.974Z,2.70
2018-02-12T00:51:05.428Z,2.70
2018-02-12T00:53:32.869Z,2.70
2018-02-12T00:56:00.321Z,2.70
2018-02-12T00:58:27.761Z,2.70
2018-02-12T01:00:55.197Z,2.60
2018-02-12T01:03:22.657Z,2.60
2018-02-12T01:05:50.146Z,2.50
2018-02-12T01:08:17.557Z,2.50
2018-02-12T01:10:44.996Z,2.40
2018-02-12T01:13:12.435Z,2.30
2018-02-12T01:15:43.851Z,2.30
2018-02-12T01:22:45.592Z,2.20
2018-02-12T01:25:13.408Z,2.10
2018-02-12T01:27:40.879Z,2.00
2018-02-12T01:30:08.324Z,2.00
2018-02-12T01:32:35.766Z,2.10
2018-02-12T01:35:03.279Z,2.10
2018-02-12T01:37:30.694Z,2.10
2018-02-12T01:39:58.141Z,2.10
2018-02-12T01:42:25.573Z,2.20
2018-02-12T01:44:53.006Z,2.20
2018-02-12T01:47:20.469Z,2.20
2018-02-12T01:49:47.909Z,2.30
2018-02-12T01:52:15.388Z,2.30
2018-02-12T01:54:42.851Z,2.30
2018-02-12T01:57:10.288Z,2.30
2018-02-12T01:59:37.753Z,2.20
2018-02-12T02:02:05.194Z,2.20
2018-02-12T02:04:32.644Z,2.10
2018-02-12T02:07:00.077Z,2.10
2018-02-12T02:09:27.520Z,2.00
2018-02-12T02:11:54.986Z,2.00
2018-02-12T02:14:22.442Z,2.00
2018-02-12T02:16:50.128Z,2.00
2018-02-12T02:19:17.568Z,2.00
2018-02-12T02:21:45.026Z,2.00
2018-02-12T02:24:12.484Z,2.00
2018-02-12T02:26:39.936Z,2.00
2018-02-12T02:29:07.389Z,2.00
2018-02-12T02:31:34.841Z,2.00
2018-02-12T02:34:02.272Z,2.00
2018-02-12T02:36:29.713Z,2.00
2018-02-12T02:38:57.161Z,2.00
2018-02-12T02:41:25.085Z,2.00
2018-02-12T02:43:52.530Z,2.00
2018-02-12T02:46:20.734Z,1.90
2018-02-12T02:48:48.196Z,1.90
2018-02-12T02:51:15.658Z,1.90
2018-02-12T02:53:43.404Z,1.80
2018-02-12T02:56:10.842Z,1.80
2018-02-12T02:58:38.287Z,1.80
2018-02-12T03:01:05.744Z,1.80
2018-02-12T03:03:33.172Z,1.70
2018-02-12T03:06:00.628Z,1.70
2018-02-12T03:08:28.066Z,1.80
2018-02-12T03:10:55.534Z,1.70
2018-02-12T03:13:22.997Z,1.70
2018-02-12T03:15:50.452Z,1.70
2018-02-12T03:18:17.918Z,1.70
2018-02-12T03:20:45.524Z,1.70
2018-02-12T03:23:12.987Z,1.70
2018-02-12T03:25:40.467Z,1.70
2018-02-12T03:28:07.989Z,1.70
2018-02-12T03:30:36.366Z,1.80
2018-02-12T03:33:03.784Z,1.80
2018-02-12T03:35:31.225Z,1.80
2018-02-12T03:37:58.676Z,1.80
2018-02-12T03:40:26.112Z,1.80
2018-02-12T03:42:53.558Z,1.80
2018-02-12T03:45:20.996Z,1.80
2018-02-12T03:47:48.432Z,1.80
2018-02-12T03:50:15.887Z,1.80
2018-02-12T03:52:43.336Z,1.80
2018-02-12T03:55:10.775Z,1.80
2018-02-12T03:57:38.211Z,1.80
2018-02-12T04:00:05.659Z,1.80
2018-02-12T04:02:33.109Z,1.70
2018-02-12T04:05:00.549Z,1.70
2018-02-12T04:07:28.006Z,1.70
2018-02-12T04:09:56.768Z,1.70
2018-02-12T04:12:24.208Z,1.70
2018-02-12T04:14:51.654Z,1.70
2018-02-12T04:17:19.865Z,1.80
2018-02-12T04:19:47.659Z,1.80
2018-02-12T04:22:17.981Z,1.90
2018-02-12T04:24:45.397Z,1.90
2018-02-12T04:27:12.853Z,1.80
2018-02-12T04:29:41.047Z,1.80
2018-02-12T04:32:09.048Z,1.70
2018-02-12T04:34:36.528Z,1.70
2018-02-12T04:37:03.965Z,1.70
2018-02-12T04:39:31.418Z,1.60
2018-02-12T04:41:58.878Z,1.60
2018-02-12T04:44:26.338Z,1.60
2018-02-12T04:46:53.765Z,1.60
2018-02-12T04:49:21.980Z,1.60
2018-02-12T04:51:49.465Z,1.60
2018-02-12T04:54:16.906Z,1.60
2018-02-12T04:56:44.367Z,1.60
2018-02-12T04:59:11.788Z,1.70
2018-02-12T05:01:39.221Z,1.70
2018-02-12T05:04:06.660Z,1.70
2018-02-12T05:06:34.240Z,1.70
2018-02-12T05:09:02.097Z,1.80
2018-02-12T05:11:29.619Z,1.90
2018-02-12T05:13:57.062Z,1.90
2018-02-12T05:16:25.279Z,2.00
2018-02-12T05:18:52.741Z,1.90
2018-02-12T05:21:20.204Z,2.00
2018-02-12T05:23:47.633Z,2.00
2018-02-12T05:26:15.075Z,2.00
2018-02-12T05:28:42.523Z,2.00
2018-02-12T05:31:09.966Z,2.10
2018-02-12T05:33:37.422Z,2.10
2018-02-12T05:36:04.867Z,2.10
2018-02-12T05:38:32.457Z,2.20
2018-02-12T05:40:59.904Z,2.20
2018-02-12T05:43:27.351Z,2.20
2018-02-12T05:45:54.959Z,2.20
2018-02-12T05:48:22.381Z,2.30
2018-02-12T05:50:49.964Z,2.30
2018-02-12T05:53:17.401Z,2.30
2018-02-12T05:55:44.845Z,2.30
2018-02-12T05:58:12.289Z,2.30
2018-02-12T06:00:41.601Z,2.30
2018-02-12T06:03:09.806Z,2.30
2018-02-12T06:05:37.274Z,2.20
2018-02-12T06:08:04.713Z,2.30
2018-02-12T06:10:32.172Z,2.20
2018-02-12T06:12:59.605Z,2.20
2018-02-12T06:15:27.044Z,2.20
2018-02-12T06:17:54.503Z,2.10
2018-02-12T06:20:21.952Z,2.10
2018-02-12T06:22:49.405Z,2.10
2018-02-12T06:25:16.842Z,2.10
2018-02-12T06:27:44.281Z,2.10
2018-02-12T06:30:11.734Z,2.10
2018-02-12T06:32:39.176Z,2.10
2018-02-12T06:35:06.620Z,2.10
2018-02-12T06:37:34.073Z,2.00
2018-02-12T06:40:01.511Z,2.10
2018-02-12T06:42:28.956Z,2.10
2018-02-12T06:44:56.402Z,2.00
2018-02-12T06:47:23.848Z,2.10
2018-02-12T06:49:51.281Z,2.00
2018-02-12T06:52:18.721Z,2.10
2018-02-12T06:54:46.174Z,2.10
2018-02-12T06:57:13.609Z,2.10
2018-02-12T06:59:41.060Z,2.10
2018-02-12T07:02:10.005Z,2.10
2018-02-12T07:04:37.438Z,2.10
2018-02-12T07:07:04.892Z,2.30
2018-02-12T07:09:32.333Z,2.30
2018-02-12T07:11:59.788Z,2.30
2018-02-12T07:14:27.245Z,2.40
2018-02-12T07:16:54.822Z,2.40
2018-02-12T07:19:22.678Z,2.50
2018-02-12T07:21:50.123Z,2.50
2018-02-12T07:24:17.564Z,2.50
2018-02-12T07:26:49.434Z,2.50
2018-02-12T07:29:16.881Z,2.40
2018-02-12T07:31:44.356Z,2.40
2018-02-12T07:34:11.802Z,2.40
2018-02-12T07:36:39.223Z,2.40
2018-02-12T07:39:06.677Z,2.40
2018-02-12T07:41:34.146Z,2.40
2018-02-12T07:44:01.592Z,2.40
2018-02-12T07:46:29.352Z,2.40
2018-02-12T07:48:56.796Z,2.50
2018-02-12T07:51:24.591Z,2.50
2018-02-12T07:53:55.422Z,2.50
2018-02-12T07:56:22.863Z,2.50
2018-02-12T07:58:50.306Z,2.50
2018-02-12T08:01:17.771Z,2.50
2018-02-12T08:03:45.233Z,2.60
2018-02-12T08:06:12.668Z,3.10
2018-02-12T08:08:40.882Z,5.00
2018-02-12T08:11:08.308Z,4.90
2018-02-12T08:13:35.761Z,6.00
2018-02-12T08:16:03.225Z,6.70
2018-02-12T08:18:30.893Z,6.60
2018-02-12T08:20:58.296Z,6.20
2018-02-12T08:23:25.736Z,5.80
2018-02-12T08:25:53.352Z,5.40
2018-02-12T08:28:20.793Z,5.00
2018-02-12T08:30:48.234Z,4.70
2018-02-12T08:33:15.699Z,4.50
2018-02-12T08:35:43.140Z,4.50
2018-02-12T08:38:10.589Z,4.40
2018-02-12T08:40:38.797Z,3.90
2018-02-12T08:43:06.237Z,3.90
2018-02-12T08:45:33.684Z,3.70
2018-02-12T08:48:01.314Z,3.60
2018-02-12T08:50:28.768Z,3.50
2018-02-12T08:52:56.203Z,3.50
2018-02-12T08:55:23.637Z,3.50
2018-02-12T08:57:51.860Z,4.10
2018-02-12T09:00:19.827Z,4.00
2018-02-12T09:02:47.279Z,5.30
2018-02-12T09:05:14.721Z,6.00
2018-02-12T09:07:42.377Z,6.00
2018-02-12T09:10:09.836Z,5.90
2018-02-12T09:12:37.369Z,5.60
2018-02-12T09:15:04.816Z,5.30
2018-02-12T09:17:32.253Z,5.00
2018-02-12T09:19:59.692Z,4.70
2018-02-12T09:22:27.145Z,4.50
2018-02-12T09:24:54.581Z,4.20
2018-02-12T09:27:22.033Z,4.00
2018-02-12T09:29:49.476Z,3.90
2018-02-12T09:32:16.909Z,3.80
2018-02-12T09:34:44.356Z,3.70
2018-02-12T09:37:11.804Z,3.70
2018-02-12T09:39:39.261Z,3.70
2018-02-12T09:42:06.697Z,3.70
2018-02-12T09:44:34.131Z,3.80
2018-02-12T09:47:01.597Z,3.90
2018-02-12T09:49:29.040Z,4.00
2018-02-12T09:51:56.489Z,4.00
2018-02-12T09:54:24.452Z,4.00
2018-02-12T09:56:52.652Z,4.00
2018-02-12T09:59:20.100Z,4.00
2018-02-12T10:01:47.548Z,4.10
2018-02-12T10:04:15.790Z,4.20
2018-02-12T10:06:43.233Z,4.10
2018-02-12T10:09:10.682Z,4.20
2018-02-12T10:11:38.146Z,4.30
2018-02-12T10:14:05.585Z,4.40
2018-02-12T10:16:33.049Z,4.40
2018-02-12T10:19:00.487Z,4.40
2018-02-12T10:21:27.926Z,4.40
2018-02-12T10:23:55.440Z,4.40
2018-02-12T10:26:22.872Z,4.50
2018-02-12T10:28:50.340Z,4.60
2018-02-12T10:31:17.799Z,4.70
2018-02-12T10:33:45.252Z,4.90
2018-02-12T10:36:14.195Z,5.00
2018-02-12T10:38:41.632Z,5.00
2018-02-12T10:41:09.085Z,5.00
2018-02-12T10:43:36.516Z,4.80
2018-02-12T10:46:03.960Z,4.60
2018-02-12T10:48:31.409Z,4.60
2018-02-12T10:50:58.850Z,4.60
2018-02-12T10:53:26.301Z,4.60
2018-02-12T10:55:53.737Z,4.60
2018-02-12T10:58:21.181Z,4.60
2018-02-12T11:00:48.655Z,4.60
2018-02-12T11:03:16.116Z,4.60
2018-02-12T11:05:43.760Z,4.60
2018-02-12T11:08:11.213Z,4.60
2018-02-12T11:10:38.644Z,4.70
2018-02-12T11:13:06.105Z,4.70
2018-02-12T11:15:33.541Z,4.80
2018-02-12T11:18:00.994Z,4.90
2018-02-12T11:20:28.464Z,4.90
2018-02-12T11:22:55.900Z,4.90
2018-02-12T11:25:23.358Z,4.90
2018-02-12T11:27:50.806Z,4.90
2018-02-12T11:30:18.244Z,5.00
2018-02-12T11:32:45.693Z,5.20
2018-02-12T11:35:13.145Z,6.00
2018-02-12T11:37:40.604Z,6.90
2018-02-12T11:40:08.039Z,7.20
2018-02-12T11:42:36.267Z,7.40
2018-02-12T11:45:03.709Z,7.40
2018-02-12T11:47:31.401Z,8.30
2018-02-12T11:49:58.864Z,9.00
2018-02-12T11:52:26.306Z,8.70
2018-02-12T11:54:53.733Z,8.20
2018-02-12T11:57:21.184Z,7.70
2018-02-12T11:59:48.614Z,7.40
2018-02-12T12:02:16.082Z,7.10
2018-02-12T12:04:43.543Z,7.20
2018-02-12T12:07:10.981Z,8.00
2018-02-12T12:09:38.428Z,8.80
2018-02-12T12:12:05.868Z,10.00
2018-02-12T12:14:34.096Z,12.10
2018-02-12T12:17:01.533Z,12.00
2018-02-12T12:19:28.974Z,12.70
2018-02-12T12:21:56.412Z,13.30
2018-02-12T12:24:24.581Z,13.60
2018-02-12T12:26:52.054Z,13.60
2018-02-12T12:29:19.489Z,13.60
2018-02-12T12:31:46.946Z,13.60
2018-02-12T12:34:14.426Z,13.10
2018-02-12T12:36:41.889Z,12.80
2018-02-12T12:39:09.333Z,12.00
2018-02-12T12:41:36.791Z,10.90
2018-02-12T12:44:04.479Z,10.10
2018-02-12T12:46:31.936Z,9.50
2018-02-12T12:48:59.373Z,8.80
2018-02-12T12:51:26.825Z,8.50
2018-02-12T12:53:54.248Z,8.20
2018-02-12T12:56:22.009Z,7.80
2018-02-12T12:58:49.449Z,7.60
2018-02-12T13:01:16.922Z,7.50
2018-02-12T13:03:44.353Z,7.60
2018-02-12T13:06:11.841Z,7.50
2018-02-12T13:08:39.245Z,7.40
2018-02-12T13:11:06.681Z,7.20
2018-02-12T13:13:34.900Z,6.80
2018-02-12T13:16:02.417Z,6.80
2018-02-12T13:18:30.000Z,6.50
2018-02-12T13:20:57.488Z,6.30
2018-02-12T13:23:24.949Z,6.20
2018-02-12T13:25:52.382Z,6.20
2018-02-12T13:28:19.832Z,6.30
2018-02-12T13:30:48.050Z,7.20
2018-02-12T13:33:15.542Z,7.20
2018-02-12T13:35:42.988Z,8.10
2018-02-12T13:38:10.840Z,8.60
2018-02-12T13:40:38.293Z,9.30
2018-02-12T13:43:06.534Z,10.10
2018-02-12T13:45:33.973Z,10.40
2018-02-12T13:48:01.619Z,9.70
2018-02-12T13:50:29.088Z,9.20
2018-02-12T13:52:56.533Z,8.90
2018-02-12T13:55:23.973Z,8.50
2018-02-12T13:57:51.424Z,8.30
2018-02-12T14:00:18.857Z,8.20
2018-02-12T14:02:46.312Z,8.90
2018-02-12T14:05:13.763Z,9.00
2018-02-12T14:07:41.209Z,8.70
2018-02-12T14:10:09.413Z,8.20
2018-02-12T14:12:36.857Z,7.90
2018-02-12T14:15:04.288Z,7.70
2018-02-12T14:17:31.730Z,7.90
2018-02-12T14:19:59.180Z,7.90
2018-02-12T14:22:26.617Z,7.80
2018-02-12T14:24:54.052Z,8.60
2018-02-12T14:27:22.435Z,9.40
2018-02-12T14:29:49.892Z,10.30
2018-02-12T14:32:17.350Z,11.00
2018-02-12T14:34:44.924Z,11.30
2018-02-12T14:37:12.708Z,11.40
2018-02-12T14:39:40.184Z,10.80
2018-02-12T14:42:07.645Z,10.00
2018-02-12T14:44:35.095Z,9.20
2018-02-12T14:47:02.525Z,8.50
2018-02-12T14:49:31.614Z,7.60
2018-02-12T14:51:59.313Z,7.50
2018-02-12T14:54:26.780Z,7.30
2018-02-12T14:56:54.225Z,7.30
2018-02-12T14:59:21.677Z,7.60
2018-02-12T15:01:49.108Z,7.50
2018-02-12T15:04:17.327Z,8.70
2018-02-12T15:06:44.765Z,8.70
2018-02-12T15:09:12.217Z,9.40
2018-02-12T15:11:39.667Z,9.60
2018-02-12T15:14:07.092Z,9.30
2018-02-12T15:16:34.683Z,9.10
2018-02-12T15:19:02.105Z,9.00
2018-02-12T15:21:29.587Z,8.80
2018-02-12T15:23:57.017Z,8.70
2018-02-12T15:26:24.457Z,8.40
2018-02-12T15:28:51.896Z,8.10
2018-02-12T15:31:20.099Z,7.80
2018-02-12T15:33:47.541Z,7.70
2018-02-12T15:36:14.982Z,7.60
2018-02-12T15:38:43.933Z,7.30
2018-02-12T15:41:11.394Z,7.30
2018-02-12T15:43:38.838Z,7.10
2018-02-12T15:46:06.276Z,6.80
2018-02-12T15:48:34.496Z,6.10
2018-02-12T15:51:01.917Z,6.10
2018-02-12T15:53:29.361Z,5.90
2018-02-12T15:55:56.789Z,5.70
2018-02-12T15:58:24.241Z,5.50
2018-02-12T16:00:51.708Z,5.40
2018-02-12T16:03:19.168Z,5.20
2018-02-12T16:05:46.620Z,5.00
2018-02-12T16:08:14.064Z,4.90
2018-02-12T16:10:41.567Z,4.70
2018-02-12T16:13:08.962Z,4.60
2018-02-12T16:15:36.409Z,4.50
2018-02-12T16:18:03.950Z,4.50
2018-02-12T16:20:31.389Z,4.40
2018-02-12T16:22:58.838Z,4.30
2018-02-12T16:25:26.306Z,4.30
2018-02-12T16:27:53.838Z,4.30
2018-02-12T16:30:22.062Z,4.20
2018-02-12T16:32:49.501Z,4.20
2018-02-12T16:35:16.977Z,4.20
2018-02-12T16:37:44.434Z,4.10
2018-02-12T16:40:11.875Z,4.10
2018-02-12T16:42:40.076Z,4.00
2018-02-12T16:45:07.518Z,3.90
2018-02-12T16:47:34.981Z,3.90
2018-02-12T16:50:02.417Z,3.80
2018-02-12T16:52:29.859Z,3.80
2018-02-12T16:54:57.308Z,3.80
2018-02-12T16:57:24.749Z,3.80
2018-02-12T16:59:52.196Z,3.80
2018-02-12T17:02:22.692Z,3.80
2018-02-12T17:04:50.888Z,3.60
2018-02-12T17:07:18.340Z,3.50
2018-02-12T17:09:45.780Z,3.50
2018-02-12T17:12:13.237Z,3.50
2018-02-12T17:14:40.675Z,3.40
2018-02-12T17:17:08.106Z,3.40
2018-02-12T17:19:35.561Z,3.30
2018-02-12T17:22:03.001Z,3.30
2018-02-12T17:24:31.225Z,3.20
2018-02-12T17:26:58.660Z,3.10
2018-02-12T17:29:26.093Z,3.10
2018-02-12T17:31:53.541Z,3.10
2018-02-12T17:34:21.097Z,3.00
2018-02-12T17:36:48.548Z,3.00
2018-02-12T17:39:16.026Z,2.90
2018-02-12T17:41:43.527Z,2.90
2018-02-12T17:44:10.930Z,2.90
2018-02-12T17:46:38.707Z,2.90
2018-02-12T17:49:06.161Z,2.90
2018-02-12T17:51:33.624Z,2.80
2018-02-12T17:54:01.068Z,2.80
2018-02-12T17:56:28.509Z,2.70
2018-02-12T17:58:55.948Z,2.70
2018-02-12T18:01:24.220Z,2.70
2018-02-12T18:03:51.644Z,2.60
2018-02-12T18:06:19.089Z,2.60
2018-02-12T18:08:46.537Z,2.60
2018-02-12T18:11:14.029Z,2.60
2018-02-12T18:13:41.484Z,2.60
2018-02-12T18:16:08.926Z,2.60
2018-02-12T18:18:36.379Z,2.50
2018-02-12T18:21:03.817Z,2.50
2018-02-12T18:23:31.264Z,2.50
2018-02-12T18:26:00.228Z,2.30
2018-02-12T18:28:27.665Z,2.30
2018-02-12T18:30:55.138Z,2.40
2018-02-12T18:33:22.600Z,2.30
2018-02-12T18:35:50.046Z,2.30
2018-02-12T18:38:17.480Z,2.30
2018-02-12T18:40:44.971Z,2.20
2018-02-12T18:43:12.377Z,2.20
2018-02-12T18:45:49.809Z,2.20
2018-02-12T18:48:17.257Z,2.20
2018-02-12T18:50:44.693Z,2.20
2018-02-12T18:53:12.121Z,2.20
2018-02-12T18:55:39.586Z,2.20
2018-02-12T18:58:07.021Z,2.10
2018-02-12T19:00:34.494Z,2.10
2018-02-12T19:03:01.925Z,2.10
2018-02-12T19:05:29.365Z,2.10
2018-02-12T19:07:56.820Z,2.10
2018-02-12T19:10:24.248Z,2.00
2018-02-12T19:12:51.699Z,2.00
2018-02-12T19:15:19.124Z,2.00
2018-02-12T19:17:47.337Z,1.90
2018-02-12T19:20:14.789Z,1.80
2018-02-12T19:22:42.228Z,1.90
2018-02-12T19:25:09.684Z,1.90
2018-02-12T19:27:37.954Z,1.90
2018-02-12T19:30:06.915Z,1.80
2018-02-12T19:32:34.372Z,1.80
2018-02-12T19:35:01.801Z,1.90
2018-02-12T19:37:30.022Z,1.90
2018-02-12T19:39:57.458Z,1.80
2018-02-12T19:42:24.906Z,1.90
2018-02-12T19:44:53.100Z,1.80
2018-02-12T19:47:20.529Z,1.80
2018-02-12T19:49:47.984Z,1.80
2018-02-12T19:52:15.440Z,1.70
2018-02-12T19:54:42.874Z,1.70
2018-02-12T19:57:10.330Z,1.60
2018-02-12T19:59:37.779Z,1.60
2018-02-12T20:02:05.243Z,1.60
2018-02-12T20:04:32.732Z,1.50
2018-02-12T20:07:00.122Z,1.50
2018-02-12T20:09:27.557Z,1.50
2018-02-12T20:11:54.997Z,1.50
2018-02-12T20:14:22.468Z,1.40
2018-02-12T20:16:49.898Z,1.40
2018-02-12T20:19:18.104Z,1.40
2018-02-12T20:21:45.580Z,1.30
2018-02-12T20:24:13.022Z,1.40
2018-02-12T20:26:40.481Z,1.40
2018-02-12T20:29:08.161Z,1.30
2018-02-12T20:31:35.619Z,1.30
2018-02-12T20:34:03.074Z,1.20
2018-02-12T20:36:30.525Z,1.20
2018-02-12T20:38:58.114Z,1.20
2018-02-12T20:41:25.591Z,1.10
2018-02-12T20:43:53.043Z,1.10
2018-02-12T20:46:23.659Z,1.00
2018-02-12T20:48:51.106Z,1.00
2018-02-12T20:51:18.574Z,0.90
2018-02-12T20:53:46.013Z,0.90
2018-02-12T20:56:13.452Z,0.90
2018-02-12T20:58:40.909Z,0.90
2018-02-12T21:01:08.344Z,0.90
2018-02-12T21:03:35.805Z,0.90
2018-02-12T21:06:03.253Z,0.90
2018-02-12T21:08:30.694Z,0.90
2018-02-12T21:10:58.298Z,0.90
2018-02-12T21:13:25.736Z,0.90
2018-02-12T21:15:53.200Z,0.90
2018-02-12T21:18:20.629Z,0.90
2018-02-12T21:20:48.239Z,0.90
2018-02-12T21:23:15.698Z,0.90
2018-02-12T21:25:43.140Z,0.90
2018-02-12T21:28:10.602Z,0.90
2018-02-12T21:30:39.257Z,0.80
2018-02-12T21:33:06.679Z,0.80
2018-02-12T21:35:34.128Z,0.80
2018-02-12T21:38:01.578Z,0.80
2018-02-12T21:40:29.034Z,0.70
2018-02-12T21:42:56.473Z,0.70
2018-02-12T21:45:23.908Z,0.70
2018-02-12T21:47:51.371Z,0.60
2018-02-12T21:50:18.801Z,0.60
2018-02-12T21:52:46.261Z,0.50
2018-02-12T21:55:13.689Z,0.50
2018-02-12T21:57:41.133Z,0.50
2018-02-12T22:00:08.603Z,0.40
2018-02-12T22:02:36.052Z,0.40
2018-02-12T22:05:03.501Z,0.40
2018-02-12T22:07:31.722Z,0.40
2018-02-12T22:09:59.156Z,0.30
2018-02-12T22:12:26.614Z,0.30
2018-02-12T22:14:54.228Z,0.30
2018-02-12T22:17:21.682Z,0.30
2018-02-12T22:19:49.121Z,0.30
2018-02-12T22:22:16.588Z,0.30
2018-02-12T22:24:44.061Z,0.30
2018-02-12T22:27:11.512Z,0.30
2018-02-12T22:29:38.968Z,0.30
2018-02-12T22:32:06.419Z,0.20
2018-02-12T22:34:33.849Z,0.20
2018-02-12T22:37:01.305Z,0.20
2018-02-12T22:39:29.527Z,0.20
2018-02-12T22:41:56.991Z,0.20
2018-02-12T22:44:24.778Z,0.20
2018-02-12T22:46:52.268Z,0.20
2018-02-12T22:49:19.700Z,0.20
2018-02-12T22:51:47.286Z,0.30
2018-02-12T22:54:14.734Z,0.20
2018-02-12T22:56:42.175Z,0.30
2018-02-12T22:59:09.616Z,0.30
2018-02-12T23:01:37.094Z,0.30
2018-02-12T23:04:04.543Z,0.30
2018-02-12T23:06:31.998Z,0.30
2018-02-12T23:08:59.442Z,0.30
2018-02-12T23:16:02.302Z,0.40
2018-02-12T23:18:29.789Z,0.40
2018-02-12T23:20:57.234Z,0.40
2018-02-12T23:23:24.692Z,0.40
2018-02-12T23:25:52.141Z,0.50
2018-02-12T23:28:22.212Z,0.50
2018-02-12T23:30:50.432Z,0.60
2018-02-12T23:33:17.874Z,0.50
2018-02-12T23:35:46.094Z,0.70
2018-02-12T23:38:13.524Z,0.60
2018-02-12T23:40:40.967Z,0.70
2018-02-12T23:43:09.186Z,0.70
2018-02-12T23:45:36.624Z,0.60
2018-02-12T23:48:04.084Z,0.70
2018-02-12T23:50:31.546Z,0.70
2018-02-12T23:52:59.745Z,0.60
2018-02-12T23:55:27.209Z,0.50
2018-02-12T23:57:54.648Z,0.60
